CST,Max TemperatureF,Mean TemperatureF,Min TemperatureF,Max Dew PointF,MeanDew PointF,Min DewpointF,Max Humidity, Mean Humidity, Min Humidity, Max Sea Level PressureIn, Mean Sea Level PressureIn, Min Sea Level PressureIn, Max VisibilityMiles, Mean VisibilityMiles, Min VisibilityMiles, Max Wind SpeedMPH, Mean Wind SpeedMPH, Max Gust SpeedMPH,PrecipitationIn, CloudCover, Events, WindDirDegrees
2012-11-1,71,54,37,43,38,32,87,56,33,30.04,29.99,29.92,10,10,10,9,3,,0.00,0,,200
2012-11-2,75,60,44,55,47,41,87,65,47,29.97,29.92,29.85,10,10,10,13,6,,0.00,0,,125
2012-11-3,64,53,41,52,39,36,81,64,44,30.18,30.06,29.90,10,10,10,16,9,18,0.00,0,,313
2012-11-4,60,48,35,39,36,34,93,67,39,30.21,30.15,30.06,10,8,1,9,3,,0.00,0,Rain,105
2012-11-5,53,47,41,45,42,37,100,81,62,30.08,30.02,29.97,10,9,4,16,7,22,0.01,7,Rain-Thunderstorm,291
2012-11-6,55,48,41,41,37,28,100,73,50,30.09,30.05,30.00,10,9,4,18,6,22,0.00,4,,289
2012-11-7,53,43,33,34,31,28,81,64,44,30.15,30.11,30.05,10,10,10,18,6,22,0.00,0,,315
2012-11-8,69,52,35,43,37,32,87,60,33,30.13,30.04,29.95,10,10,10,17,10,23,0.00,0,,146
2012-11-9,71,61,51,55,51,41,82,68,57,29.97,29.93,29.87,10,10,10,23,14,30,0.00,0,,174
2012-11-10,73,66,60,54,51,46,72,60,41,29.98,29.90,29.82,10,10,10,26,17,34,0.00,0,,174
2012-11-11,66,48,30,57,45,28,100,86,68,30.22,29.93,29.78,10,9,2,23,15,39,0.51,6,Rain-Thunderstorm,271
2012-11-12,44,34,24,28,25,21,93,69,43,30.45,30.38,30.24,10,10,10,15,6,22,0.00,0,,243
2012-11-13,51,42,32,30,25,23,75,57,33,30.48,30.42,30.34,10,10,10,7,4,,0.00,0,,158
2012-11-14,53,42,32,30,27,23,87,58,33,30.42,30.35,30.28,10,10,10,8,5,,0.00,0,,129
2012-11-15,57,45,33,34,30,27,81,60,38,30.36,30.31,30.28,10,10,7,9,5,,0.00,0,,130
2012-11-16,59,46,33,36,31,28,87,58,34,30.43,30.38,30.35,10,10,4,8,2,,0.00,0,,104
2012-11-17,60,48,35,34,31,30,87,58,34,30.43,30.36,30.30,10,10,10,14,7,,0.00,0,,129
2012-11-18,62,50,37,36,31,28,75,51,27,30.32,30.26,30.20,10,10,10,14,9,17,0.00,1,,147
2012-11-19,62,53,44,46,43,36,100,71,54,30.23,30.17,30.10,10,10,7,16,9,20,0.24,4,Rain,180
2012-11-20,62,53,39,48,43,37,93,72,48,30.22,30.18,30.14,10,9,2,9,5,,0.00,0,,300
2012-11-21,69,52,35,46,38,34,100,65,27,30.27,30.19,30.09,10,8,3,10,5,,0.00,0,,147
2012-11-22,66,58,50,50,42,34,77,56,47,30.22,30.04,29.94,10,10,10,24,12,33,0.00,2,Rain-Thunderstorm,187
2012-11-23,51,40,28,34,25,19,81,61,45,30.44,30.37,30.22,10,10,10,21,11,32,0.00,1,,319
2012-11-24,50,36,23,23,20,16,86,54,30,30.40,30.21,30.00,10,10,10,15,3,,0.00,0,,178
2012-11-25,62,50,37,36,29,23,66,49,34,30.01,29.93,29.86,10,10,10,14,9,21,0.00,0,,189
2012-11-26,46,38,30,36,31,23,86,71,46,30.36,30.10,29.93,10,10,10,20,9,28,0.00,5,Rain,34
2012-11-27,42,32,21,27,23,21,100,73,46,30.44,30.35,30.28,10,10,7,9,5,,0.00,0,,66
2012-11-28,53,42,30,32,28,21,81,64,41,30.42,30.33,30.22,10,10,10,9,5,,0.00,0,,150
2012-11-29,64,50,35,36,32,30,87,59,30,30.21,30.13,30.05,10,10,10,21,11,26,0.00,0,,168
2012-11-30,64,53,42,52,43,30,94,68,57,30.13,30.08,30.04,10,10,7,15,8,21,0.00,0,,176